Time;durP1;ratioP1;P1;durP2;ratioP2;P2;SDS_P1;SDS_P2;PMS_P1;PMS_P2;Temp;Humidity;BMP_temperature;BMP_pressure;BME280_temperature;BME280_humidity;BME280_pressure;Samples;Min_cycle;Max_cycle;Signal;HPM_P1;HPM_P2
2023/12/26 00:02:13;;;;;;;18.73;4.53;;;;;;;4.67;81.11;99130.28;1700550;84;25447;-63
2023/12/26 00:04:41;;;;;;;17.10;3.95;;;;;;;4.65;81.08;99141.29;1700578;84;27389;-64
2023/12/26 00:07:08;;;;;;;24.12;7.20;;;;;;;4.63;81.24;99135.44;1700362;84;25482;-62
2023/12/26 00:09:40;;;;;;;29.10;10.05;;;;;;;4.61;81.45;99140.28;1700447;84;25520;-63
2023/12/26 00:12:08;;;;;;;16.73;5.20;;;;;;;4.59;81.59;99134.98;1700506;84;25635;-63
2023/12/26 00:14:37;;;;;;;19.00;4.37;;;;;;;4.57;81.65;99147.33;1700405;84;25676;-61
2023/12/26 00:17:05;;;;;;;22.52;5.87;;;;;;;4.57;82.05;99149.23;1700529;84;28075;-62
2023/12/26 00:19:34;;;;;;;19.02;5.83;;;;;;;4.55;82.08;99150.08;1700324;84;25893;-63
2023/12/26 00:22:02;;;;;;;19.17;5.37;;;;;;;4.53;82.38;99153.05;1700537;84;25494;-63
2023/12/26 00:24:30;;;;;;;25.23;7.53;;;;;;;4.52;82.38;99157.35;1699604;84;26288;-62
2023/12/26 00:26:59;;;;;;;22.22;5.33;;;;;;;4.48;82.54;99170.55;1700361;84;25633;-63
2023/12/26 00:29:28;;;;;;;15.03;4.90;;;;;;;4.48;82.96;99173.22;1700565;84;28052;-62
2023/12/26 00:31:56;;;;;;;22.02;7.25;;;;;;;4.47;82.75;99178.31;1700246;84;25577;-62
2023/12/26 00:34:24;;;;;;;19.42;7.10;;;;;;;4.45;82.99;99183.97;1700287;84;25602;-62
2023/12/26 00:36:50;;;;;;;18.37;6.40;;;;;;;4.45;83.40;99181.84;1700284;84;25983;-62
2023/12/26 00:39:20;;;;;;;17.17;5.05;;;;;;;4.44;83.34;99195.78;1700275;84;25483;-63
2023/12/26 00:41:48;;;;;;;17.32;4.95;;;;;;;4.43;83.52;99198.75;1700489;84;27699;-62
2023/12/26 00:44:15;;;;;;;14.68;5.55;;;;;;;4.41;83.62;99199.56;1700234;84;25467;-62
2023/12/26 00:46:46;;;;;;;20.43;6.00;;;;;;;4.39;83.82;99201.75;1727142;82;25600;-63
2023/12/26 00:49:14;;;;;;;18.23;4.45;;;;;;;4.37;83.92;99214.09;1728970;83;26622;-61
2023/12/26 00:51:42;;;;;;;23.15;5.97;;;;;;;4.37;84.19;99207.39;1728957;83;25672;-61
2023/12/26 00:54:10;;;;;;;13.00;4.85;;;;;;;4.36;84.36;99203.15;1728928;83;28193;-61
2023/12/26 00:56:38;;;;;;;14.33;4.42;;;;;;;4.36;84.47;99211.70;1728841;83;25629;-61
2023/12/26 00:59:05;;;;;;;20.08;5.58;;;;;;;4.35;84.37;99207.45;1728936;83;25550;-61
2023/12/26 01:01:33;;;;;;;16.55;6.47;;;;;;;4.32;84.52;99200.00;1728925;83;26620;-61
2023/12/26 01:04:01;;;;;;;16.97;5.05;;;;;;;4.32;84.66;99200.00;1728965;83;25654;-61
2023/12/26 01:06:28;;;;;;;19.00;5.37;;;;;;;4.30;84.68;99206.98;1728952;83;28007;-61
2023/12/26 01:08:57;;;;;;;17.00;5.80;;;;;;;4.30;84.79;99206.98;1728857;83;25611;-62
2023/12/26 01:11:26;;;;;;;27.40;5.78;;;;;;;4.29;84.90;99218.77;1728957;83;25616;-62
2023/12/26 01:13:54;;;;;;;13.22;4.03;;;;;;;4.30;85.19;99226.52;1728978;83;26283;-61
2023/12/26 01:16:27;;;;;;;15.07;4.43;;;;;;;4.30;85.28;99223.84;1729193;83;25650;-61
2023/12/26 01:18:52;;;;;;;16.77;5.47;;;;;;;4.32;85.19;99224.09;1728038;83;27340;-62
2023/12/26 01:21:21;;;;;;;19.53;5.50;;;;;;;4.32;85.21;99217.41;1729085;83;25744;-62
2023/12/26 01:23:48;;;;;;;15.85;4.90;;;;;;;4.32;85.32;99224.09;1728952;83;25475;-62
2023/12/26 01:26:17;;;;;;;12.82;4.62;;;;;;;4.31;85.13;99221.98;1728867;83;26407;-61
2023/12/26 01:28:45;;;;;;;15.65;4.65;;;;;;;4.30;85.41;99218.48;1728961;83;25602;-61
2023/12/26 01:31:12;;;;;;;20.00;4.37;;;;;;;4.29;85.70;99212.08;1701975;83;27425;-61
2023/12/26 01:33:39;;;;;;;17.20;5.00;;;;;;;4.28;85.57;99213.19;1728807;83;25557;-62
2023/12/26 01:36:08;;;;;;;12.93;4.05;;;;;;;4.28;85.87;99211.30;1728884;83;25455;-61
2023/12/26 01:38:36;;;;;;;17.30;4.53;;;;;;;4.28;85.99;99207.83;1729136;83;35149;-61
2023/12/26 01:41:04;;;;;;;11.57;3.30;;;;;;;4.29;86.54;99206.20;1729054;83;25477;-61
2023/12/26 01:43:32;;;;;;;16.75;3.80;;;;;;;4.29;86.30;99193.34;1728922;83;28055;-60
2023/12/26 01:45:59;;;;;;;15.75;3.85;;;;;;;4.30;86.60;99197.62;1728785;83;25812;-61
2023/12/26 01:48:30;;;;;;;21.33;4.00;;;;;;;4.31;86.49;99189.84;1728913;83;25471;-61
2023/12/26 01:51:00;;;;;;;13.25;3.62;;;;;;;4.31;86.63;99195.20;1728944;83;26084;-60
2023/12/26 01:53:29;;;;;;;16.35;4.00;;;;;;;4.30;86.44;99197.06;1728954;83;25513;-61
2023/12/26 01:55:57;;;;;;;14.38;3.42;;;;;;;4.31;86.63;99196.54;1729059;83;27530;-61
2023/12/26 01:58:25;;;;;;;17.27;4.15;;;;;;;4.33;86.48;99205.63;1728815;83;25641;-61
2023/12/26 02:00:54;;;;;;;18.48;4.05;;;;;;;4.34;86.52;99201.84;1726328;83;25647;-61
2023/12/26 02:03:24;;;;;;;11.53;3.45;;;;;;;4.35;86.65;99199.42;1728904;83;26511;-61
2023/12/26 02:05:52;;;;;;;;;;;;;;;4.38;86.61;99204.20;1731553;83;25409;-60
2023/12/26 02:08:20;;;;;;;15.83;3.20;;;;;;;4.42;86.55;99192.58;1729076;83;27333;-61
2023/12/26 02:10:50;;;;;;;17.25;3.65;;;;;;;4.43;86.47;99199.53;1729147;83;25699;-60
2023/12/26 02:13:19;;;;;;;13.53;3.50;;;;;;;4.47;86.38;99193.05;1729064;83;25600;-60
2023/12/26 02:15:54;;;;;;;14.25;3.27;;;;;;;4.48;86.28;99190.08;1729189;83;26378;-61
2023/12/26 02:18:22;;;;;;;15.65;3.87;;;;;;;4.52;86.17;99191.61;1729086;83;25581;-61
2023/12/26 02:20:50;;;;;;;18.67;3.83;;;;;;;4.54;86.06;99184.08;1729061;83;28015;-61
2023/12/26 02:23:21;;;;;;;13.48;3.42;;;;;;;4.57;85.99;99193.41;1729118;83;26057;-61
2023/12/26 02:25:51;;;;;;;15.15;3.95;;;;;;;4.59;85.78;99187.21;1729107;83;25589;-61
2023/12/26 02:28:20;;;;;;;14.65;3.80;;;;;;;4.62;85.68;99185.29;1729081;83;25783;-60
2023/12/26 02:30:49;;;;;;;14.70;3.30;;;;;;;4.65;85.52;99176.66;1729247;83;25615;-61
2023/12/26 02:33:18;;;;;;;15.45;3.98;;;;;;;4.65;85.47;99177.45;1729218;83;28294;-61
2023/12/26 02:35:47;;;;;;;16.17;3.67;;;;;;;4.70;85.40;99182.45;1729200;83;25403;-61
2023/12/26 02:38:13;;;;;;;14.80;3.93;;;;;;;4.71;85.22;99177.36;1729304;83;25664;-61
2023/12/26 02:40:40;;;;;;;13.13;4.42;;;;;;;4.73;85.21;99171.93;1729015;83;25958;-61
2023/12/26 02:43:09;;;;;;;17.62;3.95;;;;;;;4.74;85.20;99165.50;1729086;83;25588;-62
2023/12/26 02:45:39;;;;;;;13.58;3.65;;;;;;;4.75;85.15;99167.09;1725445;83;28272;-61
2023/12/26 02:48:07;;;;;;;12.25;3.35;;;;;;;4.77;85.12;99178.30;1712779;83;25418;-61
2023/12/26 02:50:36;;;;;;;17.02;3.90;;;;;;;4.76;85.09;99172.69;1712974;83;25587;-61
2023/12/26 02:53:05;;;;;;;13.33;3.80;;;;;;;4.79;85.24;99172.09;1713034;83;26675;-61
2023/12/26 02:55:33;;;;;;;13.83;4.10;;;;;;;4.79;85.43;99169.41;1690412;83;25670;-61
2023/12/26 02:58:01;;;;;;;14.65;3.77;;;;;;;4.80;85.57;99174.22;1712805;83;28043;-62
2023/12/26 03:00:30;;;;;;;14.18;3.72;;;;;;;4.83;85.82;99169.61;1712704;83;26057;-62
2023/12/26 03:02:57;;;;;;;12.63;4.42;;;;;;;4.84;85.80;99173.89;1690323;83;25666;-63
2023/12/26 03:05:27;;;;;;;13.28;4.53;;;;;;;4.86;85.86;99173.04;1712754;83;26424;-63
2023/12/26 03:07:55;;;;;;;11.27;4.40;;;;;;;4.88;86.19;99178.11;1713047;83;25668;-61
2023/12/26 03:10:24;;;;;;;15.35;3.85;;;;;;;4.90;86.48;99175.36;1712951;83;30147;-61
2023/12/26 03:12:53;;;;;;;17.10;4.42;;;;;;;4.92;86.81;99180.42;1712705;83;25590;-61
2023/12/26 03:15:22;;;;;;;23.20;4.12;;;;;;;4.93;86.95;99172.09;1712889;83;25500;-61
2023/12/26 03:17:49;;;;;;;16.52;4.50;;;;;;;4.95;87.18;99156.50;1712739;83;25727;-61
2023/12/26 03:20:17;;;;;;;15.63;4.35;;;;;;;4.98;87.33;99159.14;1712806;83;25600;-61
2023/12/26 03:22:45;;;;;;;16.52;4.67;;;;;;;5.00;87.38;99160.97;1712775;83;28370;-61
2023/12/26 03:25:13;;;;;;;16.65;4.37;;;;;;;5.01;87.51;99142.47;1712679;83;25762;-61
2023/12/26 03:27:42;;;;;;;14.87;5.40;;;;;;;5.02;87.63;99144.86;1712780;83;25567;-61
2023/12/26 03:30:10;;;;;;;13.40;4.20;;;;;;;5.05;87.59;99132.72;1712740;83;25639;-61
2023/12/26 03:32:38;;;;;;;15.70;4.67;;;;;;;5.06;87.56;99138.34;1712999;83;25643;-61
2023/12/26 03:35:09;;;;;;;11.63;3.40;;;;;;;5.08;87.45;99128.11;1712745;83;27293;-61
2023/12/26 03:37:35;;;;;;;11.10;3.42;;;;;;;5.07;87.29;99125.17;1712746;83;25706;-61
2023/12/26 03:40:06;;;;;;;9.70;3.37;;;;;;;5.07;87.28;99121.15;1712741;83;25456;-61
2023/12/26 03:42:34;;;;;;;15.72;3.42;;;;;;;5.07;87.30;99117.69;1712772;83;25608;-61
2023/12/26 03:45:01;;;;;;;13.00;4.08;;;;;;;5.07;87.34;99119.81;1712781;83;25572;-62
2023/12/26 03:47:30;;;;;;;11.28;3.35;;;;;;;5.07;87.39;99115.00;1726452;83;27644;-62
2023/12/26 03:50:00;;;;;;;9.98;3.77;;;;;;;5.05;87.39;99108.05;1728907;83;25769;-61
2023/12/26 03:52:28;;;;;;;17.67;4.20;;;;;;;5.05;87.44;99109.94;1729174;83;25393;-61
2023/12/26 03:54:57;;;;;;;14.53;3.52;;;;;;;5.04;87.53;99107.81;1728894;83;25695;-61
2023/12/26 03:57:25;;;;;;;9.85;3.75;;;;;;;5.04;87.69;99110.50;1729154;83;25611;-60
2023/12/26 03:59:53;;;;;;;14.15;3.80;;;;;;;5.04;87.68;99107.81;1728999;83;28062;-61
2023/12/26 04:02:22;;;;;;;11.80;4.00;;;;;;;5.04;87.87;99105.14;1729171;83;25704;-61
2023/12/26 04:04:50;;;;;;;15.60;3.90;;;;;;;5.04;87.88;99097.66;1728947;83;25471;-61
2023/12/26 04:07:18;;;;;;;12.13;3.42;;;;;;;5.04;87.96;99100.34;1728938;83;25996;-61
2023/12/26 04:09:46;;;;;;;12.43;3.92;;;;;;;5.05;88.17;99097.88;1729021;83;25411;-61
2023/12/26 04:12:15;;;;;;;15.90;4.22;;;;;;;5.04;88.28;99097.66;1728977;83;27343;-61
2023/12/26 04:14:43;;;;;;;8.98;4.53;;;;;;;5.04;88.34;99090.95;1728867;83;25638;-61
2023/12/26 04:17:11;;;;;;;13.38;4.12;;;;;;;5.04;88.47;99090.40;1728979;83;25551;-61
2023/12/26 04:19:38;;;;;;;15.18;4.37;;;;;;;5.05;88.57;99095.20;1728929;83;25825;-61
2023/12/26 04:22:09;;;;;;;11.63;3.98;;;;;;;5.04;88.62;99086.37;1729000;83;25650;-61
2023/12/26 04:24:36;;;;;;;14.30;3.70;;;;;;;5.04;88.72;99085.03;1729098;83;27882;-62
2023/12/26 04:27:07;;;;;;;11.25;4.10;;;;;;;5.05;88.84;99070.52;1728965;83;25493;-61
2023/12/26 04:29:35;;;;;;;12.65;4.55;;;;;;;5.06;88.85;99070.00;1729021;83;25470;-61
2023/12/26 04:32:04;;;;;;;16.93;4.50;;;;;;;5.08;88.96;99068.36;1728940;83;25801;-61
2023/12/26 04:34:32;;;;;;;11.75;4.58;;;;;;;5.07;88.89;99063.52;1729132;83;27537;-61
2023/12/26 04:37:00;;;;;;;16.25;4.47;;;;;;;5.07;88.94;99062.19;1728962;83;27393;-61
2023/12/26 04:39:29;;;;;;;15.23;4.28;;;;;;;5.07;88.97;99056.04;1729030;83;26026;-61
2023/12/26 04:41:57;;;;;;;11.90;3.92;;;;;;;5.07;89.06;99055.48;1728961;83;25416;-61
2023/12/26 04:44:25;;;;;;;11.33;3.98;;;;;;;5.08;89.17;99054.95;1702113;83;25552;-62
2023/12/26 04:46:53;;;;;;;8.58;3.60;;;;;;;5.08;89.35;99054.40;1728839;83;25407;-61
2023/12/26 04:49:22;;;;;;;11.03;4.00;;;;;;;5.09;89.52;99055.19;1729086;83;28614;-62
2023/12/26 04:51:51;;;;;;;9.30;3.83;;;;;;;5.10;89.75;99053.55;1729024;83;29682;-61
2023/12/26 04:54:20;;;;;;;12.65;4.78;;;;;;;5.09;89.85;99042.59;1729079;83;25636;-63
2023/12/26 04:56:48;;;;;;;11.48;3.77;;;;;;;5.10;90.12;99048.19;1728941;83;26050;-61
2023/12/26 04:59:16;;;;;;;12.70;4.05;;;;;;;5.11;90.39;99044.42;1728978;83;25425;-61
2023/12/26 05:01:46;;;;;;;12.85;3.92;;;;;;;5.11;90.50;99031.55;1729103;83;29227;-61
2023/12/26 05:04:14;;;;;;;11.63;3.52;;;;;;;5.10;90.62;99034.00;1728866;83;25395;-61
2023/12/26 05:06:41;;;;;;;8.33;3.45;;;;;;;5.08;90.76;99026.25;1728945;83;25492;-61
2023/12/26 05:09:09;;;;;;;12.10;4.22;;;;;;;5.09;91.07;99027.04;1729053;83;26556;-62
2023/12/26 05:11:39;;;;;;;16.23;4.62;;;;;;;5.08;91.41;99022.80;1728942;83;25635;-62
2023/12/26 05:14:06;;;;;;;16.32;4.10;;;;;;;5.05;91.57;99015.58;1728911;83;27596;-61
2023/12/26 05:16:42;;;;;;;9.38;3.70;;;;;;;5.07;91.87;99012.59;1729010;83;26098;-61
2023/12/26 05:19:11;;;;;;;12.05;4.17;;;;;;;5.04;92.16;99007.31;1728970;83;25481;-62
2023/12/26 05:21:40;;;;;;;9.65;3.62;;;;;;;5.00;92.63;99003.63;1729047;83;26319;-62
2023/12/26 05:24:08;;;;;;;15.68;4.10;;;;;;;4.99;92.66;98993.25;1728969;83;25622;-61
2023/12/26 05:26:42;;;;;;;15.63;3.90;;;;;;;4.95;93.14;98990.91;1701911;83;27525;-62
2023/12/26 05:29:11;;;;;;;13.53;3.95;;;;;;;4.93;93.53;98993.89;1728894;83;25435;-62
2023/12/26 05:31:39;;;;;;;11.83;4.03;;;;;;;4.91;93.93;98992.63;1729067;83;25438;-61
2023/12/26 05:34:09;;;;;;;9.85;4.28;;;;;;;4.89;94.38;98987.56;1728863;83;25619;-62
2023/12/26 05:36:37;;;;;;;9.60;3.92;;;;;;;4.85;94.81;98975.84;1728975;83;25481;-62
2023/12/26 05:39:08;;;;;;;14.25;5.10;;;;;;;4.84;95.43;98985.00;1729052;83;32816;-62
2023/12/26 05:41:37;;;;;;;14.07;4.15;;;;;;;4.82;95.84;98967.89;1728929;83;25701;-61
2023/12/26 05:44:05;;;;;;;13.68;5.05;;;;;;;4.81;96.02;98970.30;1729107;83;25573;-62
2023/12/26 05:46:33;;;;;;;15.93;4.53;;;;;;;4.80;96.23;98958.55;1729177;83;25608;-62
2023/12/26 05:49:02;;;;;;;14.07;5.33;;;;;;;4.79;96.49;98959.11;1729161;83;25416;-62
2023/12/26 05:51:30;;;;;;;11.15;4.95;;;;;;;4.80;96.99;98960.70;1729056;83;28059;-62
2023/12/26 05:53:58;;;;;;;15.00;5.10;;;;;;;4.79;97.37;98955.64;1729152;83;27420;-62
2023/12/26 05:56:27;;;;;;;11.60;4.35;;;;;;;4.78;97.77;98953.49;1729022;83;25473;-62
2023/12/26 05:58:54;;;;;;;13.18;4.90;;;;;;;4.79;97.92;98947.05;1729048;83;26320;-62
2023/12/26 06:01:23;;;;;;;9.23;4.53;;;;;;;4.79;98.13;98936.33;1729109;83;25627;-62
2023/12/26 06:03:52;;;;;;;10.47;4.40;;;;;;;4.81;98.59;98937.38;1729311;83;28067;-62
2023/12/26 06:06:21;;;;;;;13.15;4.83;;;;;;;4.82;99.12;98934.95;1729002;83;25451;-62
2023/12/26 06:08:47;;;;;;;8.68;4.75;;;;;;;4.81;99.60;98939.50;1729095;83;25455;-62
2023/12/26 06:11:15;;;;;;;10.80;4.33;;;;;;;4.84;100.00;98926.84;1729034;83;25757;-62
2023/12/26 06:13:44;;;;;;;11.95;4.95;;;;;;;4.84;100.00;98926.84;1729257;83;25459;-63
2023/12/26 06:16:11;;;;;;;12.07;5.80;;;;;;;4.86;100.00;98927.32;1729055;83;27306;-63
2023/12/26 06:18:37;;;;;;;13.05;5.80;;;;;;;4.89;100.00;98918.42;1729001;83;25407;-62
2023/12/26 06:21:05;;;;;;;15.55;5.30;;;;;;;4.92;100.00;98914.62;1729062;83;25445;-63
2023/12/26 06:23:32;;;;;;;9.90;5.90;;;;;;;4.93;100.00;98908.14;1729037;83;25947;-63
2023/12/26 06:25:58;;;;;;;9.80;5.20;;;;;;;4.95;100.00;98905.94;1729105;83;25667;-63
2023/12/26 06:28:25;;;;;;;13.00;5.50;;;;;;;4.98;100.00;98902.66;1729068;83;27331;-63
2023/12/26 06:30:53;;;;;;;8.25;5.37;;;;;;;5.01;100.00;98903.95;1728949;83;25489;-64
2023/12/26 06:33:20;;;;;;;13.58;5.55;;;;;;;5.04;100.00;98895.30;1729058;83;25642;-64
2023/12/26 06:35:49;;;;;;;11.20;5.25;;;;;;;5.07;100.00;98893.33;1728984;83;26445;-65
2023/12/26 06:38:17;;;;;;;8.53;5.00;;;;;;;5.09;100.00;98885.80;1729075;83;25565;-65
2023/12/26 06:40:44;;;;;;;10.82;6.08;;;;;;;5.12;100.00;98886.50;1729046;83;28373;-66
2023/12/26 06:43:10;;;;;;;8.95;4.80;;;;;;;5.15;100.00;98883.21;1701949;83;25989;-66
2023/12/26 06:45:38;;;;;;;10.55;5.62;;;;;;;5.18;100.00;98887.97;1729051;83;25624;-67
2023/12/26 06:48:07;;;;;;;8.28;4.90;;;;;;;5.22;100.00;98876.08;1717518;83;26783;-67
2023/12/26 06:50:35;;;;;;;7.25;4.90;;;;;;;5.23;100.00;98879.01;1712967;83;26043;-68
2023/12/26 06:53:03;;;;;;;9.48;5.80;;;;;;;5.26;100.00;98873.04;1712779;83;27256;-69
2023/12/26 06:55:30;;;;;;;8.15;5.20;;;;;;;5.31;100.00;98870.75;1712676;83;25978;-69
2023/12/26 06:57:58;;;;;;;9.83;5.67;;;;;;;5.34;100.00;98870.14;1712881;83;25480;-70
2023/12/26 07:00:26;;;;;;;9.30;4.97;;;;;;;5.36;100.00;98856.69;1712835;83;25991;-70
2023/12/26 07:02:56;;;;;;;9.73;5.40;;;;;;;5.41;100.00;98869.95;1712976;83;25559;-69
2023/12/26 07:05:24;;;;;;;10.65;5.05;;;;;;;5.47;100.00;98855.84;1712838;83;28082;-69
2023/12/26 07:07:52;;;;;;;9.03;5.55;;;;;;;5.50;100.00;98853.08;1712700;83;26023;-69
2023/12/26 07:10:20;;;;;;;7.80;5.35;;;;;;;5.54;100.00;98852.72;1713012;83;25572;-68
2023/12/26 07:12:48;;;;;;;8.85;4.58;;;;;;;5.58;100.00;98850.45;1712817;83;26627;-67
2023/12/26 07:15:16;;;;;;;11.00;5.78;;;;;;;5.62;100.00;98842.58;1712844;83;25463;-66
2023/12/26 07:17:42;;;;;;;10.32;5.10;;;;;;;5.66;100.00;98849.45;1712814;83;27960;-66
2023/12/26 07:20:12;;;;;;;7.40;5.08;;;;;;;5.70;100.00;98833.73;1712722;83;25514;-69
2023/12/26 07:22:40;;;;;;;7.80;4.80;;;;;;;5.75;100.00;98836.27;1712761;83;25620;-67
2023/12/26 07:25:09;;;;;;;8.20;4.95;;;;;;;5.79;100.00;98833.22;1712774;83;25903;-66
2023/12/26 07:27:37;;;;;;;7.75;5.40;;;;;;;5.86;100.00;98827.95;1713023;83;25649;-66
2023/12/26 07:30:06;;;;;;;9.53;4.78;;;;;;;5.91;100.00;98827.81;1712772;83;28405;-67
2023/12/26 07:32:34;;;;;;;8.53;5.15;;;;;;;5.94;100.00;98826.63;1712726;83;25422;-67
2023/12/26 07:35:04;;;;;;;8.45;4.62;;;;;;;5.98;100.00;98816.08;1712781;83;25426;-68
2023/12/26 07:37:32;;;;;;;;;;;;;;;6.03;100.00;98816.45;1715331;83;25608;-68
2023/12/26 07:39:59;;;;;;;7.35;4.62;;;;;;;6.07;100.00;98806.69;1712808;83;25449;-69
2023/12/26 07:42:26;;;;;;;6.08;5.20;;;;;;;6.10;100.00;98808.75;1712756;83;28394;-69
2023/12/26 07:44:57;;;;;;;6.22;4.55;;;;;;;6.15;100.00;98810.72;1712664;83;26198;-69
2023/12/26 07:47:24;;;;;;;7.37;4.03;;;;;;;6.20;100.00;98808.97;1709244;83;25478;-67
2023/12/26 07:49:52;;;;;;;9.30;5.00;;;;;;;6.24;100.00;98796.52;1700305;84;25544;-69
2023/12/26 07:52:21;;;;;;;8.50;4.80;;;;;;;6.27;100.00;98791.30;1700514;84;25487;-68
2023/12/26 07:54:48;;;;;;;5.97;4.10;;;;;;;6.32;100.00;98791.70;1700292;84;28066;-68
2023/12/26 07:57:14;;;;;;;6.87;4.47;;;;;;;6.35;100.00;98792.38;1700274;84;25789;-69
2023/12/26 07:59:42;;;;;;;6.45;4.10;;;;;;;6.39;100.00;98779.91;1700330;84;25575;-68
2023/12/26 08:02:10;;;;;;;5.60;4.37;;;;;;;6.43;100.00;98778.16;1700302;84;26795;-69
2023/12/26 08:04:38;;;;;;;5.37;4.20;;;;;;;6.47;100.00;98771.06;1700302;84;25666;-68
2023/12/26 08:07:07;;;;;;;6.78;3.95;;;;;;;6.51;100.00;98783.30;1700322;84;28056;-67
2023/12/26 08:09:36;;;;;;;5.92;4.53;;;;;;;6.54;100.00;98778.64;1700433;84;25638;-68
2023/12/26 08:12:05;;;;;;;4.83;3.85;;;;;;;6.57;100.00;98774.52;1700501;84;25570;-68
2023/12/26 08:14:33;;;;;;;4.55;3.62;;;;;;;6.61;100.00;98777.59;1700454;84;26311;-68
2023/12/26 08:17:01;;;;;;;8.05;4.37;;;;;;;6.65;100.00;98777.73;1700322;84;25663;-67
2023/12/26 08:19:29;;;;;;;4.67;3.92;;;;;;;6.69;100.00;98785.38;1700352;84;27331;-67
2023/12/26 08:21:58;;;;;;;5.65;3.90;;;;;;;6.73;100.00;98771.56;1700450;84;25564;-68
2023/12/26 08:24:26;;;;;;;5.47;4.35;;;;;;;6.78;100.00;98767.92;1699711;84;25611;-66
2023/12/26 08:26:54;;;;;;;5.55;4.03;;;;;;;6.81;100.00;98757.31;1700291;84;25829;-66
2023/12/26 08:29:22;;;;;;;5.42;4.65;;;;;;;6.85;100.00;98758.23;1676273;84;25519;-66
2023/12/26 08:31:51;;;;;;;6.78;4.03;;;;;;;6.90;100.00;98764.00;1700481;84;28204;-66
2023/12/26 08:34:19;;;;;;;5.58;3.92;;;;;;;6.94;100.00;98762.23;1700247;84;25569;-66
2023/12/26 08:36:48;;;;;;;7.30;4.47;;;;;;;6.99;100.00;98755.34;1700421;84;25659;-66
2023/12/26 08:39:16;;;;;;;8.00;4.47;;;;;;;7.04;100.00;98761.88;1700282;84;25835;-66
2023/12/26 08:41:44;;;;;;;5.45;4.28;;;;;;;7.08;100.00;98762.84;1700355;84;25505;-65
2023/12/26 08:44:12;;;;;;;5.05;4.30;;;;;;;7.15;100.00;98749.42;1700354;84;28297;-66
2023/12/26 08:46:40;;;;;;;5.15;4.05;;;;;;;7.21;100.00;98753.52;1700232;84;25594;-65
2023/12/26 08:49:08;;;;;;;3.95;3.40;;;;;;;7.24;100.00;98746.16;1700293;82;25632;-65
2023/12/26 08:51:40;;;;;;;6.08;3.80;;;;;;;7.31;100.00;98746.99;1700280;84;25816;-65
2023/12/26 08:54:11;;;;;;;4.30;3.10;;;;;;;7.35;100.00;98747.34;1700349;84;25582;-64
2023/12/26 08:56:39;;;;;;;4.95;2.90;;;;;;;7.41;100.00;98739.89;1700359;84;27401;-64
2023/12/26 08:59:08;;;;;;;4.70;3.20;;;;;;;7.48;100.00;98743.63;1700412;84;26066;-64
2023/12/26 09:01:37;;;;;;;3.72;2.75;;;;;;;7.57;100.00;98744.14;1700436;84;25529;-65
2023/12/26 09:04:07;;;;;;;3.25;2.55;;;;;;;7.64;100.00;98740.37;1700145;84;26788;-65
2023/12/26 09:06:35;;;;;;;2.50;2.30;;;;;;;7.71;100.00;98750.05;1700340;84;25473;-65
2023/12/26 09:09:04;;;;;;;3.60;2.50;;;;;;;7.80;100.00;98743.28;1700566;84;28373;-63
2023/12/26 09:11:32;;;;;;;3.22;2.00;;;;;;;7.87;100.00;98739.50;1700202;84;25716;-64
2023/12/26 09:14:00;;;;;;;3.45;2.40;;;;;;;7.92;100.00;98737.96;1700261;84;25643;-64
2023/12/26 09:16:28;;;;;;;2.77;2.30;;;;;;;8.00;100.00;98747.07;1700195;84;26289;-63
2023/12/26 09:18:56;;;;;;;2.33;2.15;;;;;;;8.06;100.00;98739.60;1700330;84;25664;-63
2023/12/26 09:21:25;;;;;;;3.47;1.90;;;;;;;8.12;100.00;98740.95;1700524;84;28379;-63
2023/12/26 09:23:53;;;;;;;3.92;2.30;;;;;;;8.17;100.00;98751.53;1699564;84;25489;-63
2023/12/26 09:26:22;;;;;;;2.37;1.87;;;;;;;8.22;100.00;98742.70;1700275;84;25598;-63
2023/12/26 09:28:50;;;;;;;2.37;2.12;;;;;;;8.27;100.00;98747.08;1700396;84;25629;-63
2023/12/26 09:31:18;;;;;;;2.72;2.52;;;;;;;8.32;100.00;98746.09;1700322;84;25667;-63
2023/12/26 09:33:44;;;;;;;3.08;2.35;;;;;;;8.37;100.00;98740.50;1700270;84;27392;-63
2023/12/26 09:36:15;;;;;;;4.45;2.40;;;;;;;8.42;100.00;98734.91;1700180;84;26018;-63
2023/12/26 09:38:42;;;;;;;3.22;2.33;;;;;;;8.47;100.00;98735.29;1700462;84;25451;-63
2023/12/26 09:41:18;;;;;;;3.92;2.67;;;;;;;8.51;100.00;98737.53;1700247;84;25747;-62
2023/12/26 09:43:43;;;;;;;4.85;2.87;;;;;;;8.54;100.00;98743.05;1699004;84;25461;-63
2023/12/26 09:46:12;;;;;;;3.05;2.67;;;;;;;8.57;100.00;98741.03;1700428;84;30013;-62
2023/12/26 09:48:40;;;;;;;3.00;2.52;;;;;;;8.60;100.00;98745.77;1700110;83;26036;-62
2023/12/26 09:51:17;;;;;;;3.15;2.42;;;;;;;8.65;100.00;98737.23;1700302;84;25567;-62
2023/12/26 09:53:46;;;;;;;2.45;2.25;;;;;;;8.68;100.00;98738.69;1700133;84;26726;-62
2023/12/26 09:56:15;;;;;;;3.10;2.27;;;;;;;8.71;100.00;98745.34;1700453;84;25578;-61
2023/12/26 09:58:44;;;;;;;4.50;2.72;;;;;;;8.74;100.00;98752.20;1700538;84;27412;-61
2023/12/26 10:01:15;;;;;;;3.70;2.90;;;;;;;8.77;100.00;98749.41;1700201;84;25755;-61
2023/12/26 10:03:45;;;;;;;2.90;2.42;;;;;;;8.79;100.00;98744.46;1700367;84;25416;-60
2023/12/26 10:06:15;;;;;;;2.90;2.62;;;;;;;8.82;100.00;98751.89;1700286;84;26293;-60
2023/12/26 10:08:43;;;;;;;3.65;2.75;;;;;;;8.84;100.00;98757.73;1700328;84;25571;-61
2023/12/26 10:11:15;;;;;;;2.58;2.37;;;;;;;8.85;100.00;98759.28;1700246;84;28128;-60
2023/12/26 10:13:54;;;;;;;3.33;3.02;;;;;;;8.87;100.00;98763.00;1700293;84;25723;-62
2023/12/26 10:16:23;;;;;;;3.72;2.75;;;;;;;8.87;100.00;98766.50;1700392;84;27157;-62
2023/12/26 10:18:51;;;;;;;4.87;2.63;;;;;;;8.89;100.00;98771.56;1700414;84;26381;-62
2023/12/26 10:21:19;;;;;;;3.83;2.72;;;;;;;8.88;100.00;98767.28;1699877;84;25418;-64
2023/12/26 10:23:46;;;;;;;3.60;2.98;;;;;;;8.91;100.00;98768.74;1675429;84;27337;-63
2023/12/26 10:26:15;;;;;;;4.08;2.90;;;;;;;8.93;100.00;98776.50;1699480;84;26191;-61
2023/12/26 10:28:43;;;;;;;2.45;2.25;;;;;;;8.93;100.00;98777.28;1699771;84;25687;-63
2023/12/26 10:31:14;;;;;;;3.22;2.72;;;;;;;8.94;100.00;98780.78;1675735;84;26415;-63
2023/12/26 10:33:44;;;;;;;3.30;3.00;;;;;;;8.93;100.00;98783.24;1699738;84;25741;-62
2023/12/26 10:36:12;;;;;;;3.50;3.20;;;;;;;8.93;100.00;98791.33;1699988;84;27293;-63
2023/12/26 10:38:42;;;;;;;3.37;2.85;;;;;;;8.92;100.00;98797.30;1700481;84;25709;-63
2023/12/26 10:41:24;;;;;;;;;;;;;;;8.92;100.00;98804.58;1703004;84;25585;-62
2023/12/26 10:43:59;;;;;;;3.37;2.98;;;;;;;8.92;100.00;98806.73;1700440;84;25540;-61
2023/12/26 10:46:26;;;;;;;3.33;2.70;;;;;;;8.91;100.00;98823.24;1676254;84;25664;-62
2023/12/26 10:48:59;;;;;;;4.20;3.00;;;;;;;8.90;100.00;98815.69;1700408;83;27388;-62
2023/12/26 10:51:31;;;;;;;4.40;2.83;;;;;;;8.90;100.00;98808.17;1700364;84;26027;-63
2023/12/26 10:54:16;;;;;;;3.75;3.05;;;;;;;8.89;100.00;98820.88;1700436;84;25450;-60
2023/12/26 10:56:48;;;;;;;3.67;2.42;;;;;;;8.89;100.00;98825.48;1700366;84;26596;-59
2023/12/26 10:59:48;;;;;;;3.12;2.65;;;;;;;8.88;100.00;98830.08;1700535;84;25463;-60
2023/12/26 11:02:16;;;;;;;3.33;3.00;;;;;;;8.89;100.00;98828.97;1700566;84;28059;-60
2023/12/26 11:04:46;;;;;;;3.23;2.43;;;;;;;8.88;100.00;98831.42;1700562;84;26048;-60
2023/12/26 11:07:14;;;;;;;5.30;2.80;;;;;;;8.89;100.00;98835.70;1650992;84;25455;-60
2023/12/26 11:09:42;;;;;;;3.02;2.60;;;;;;;8.87;100.00;98828.52;1676225;84;25968;-60
2023/12/26 11:12:11;;;;;;;3.92;2.50;;;;;;;8.86;100.00;98822.89;1676714;84;25516;-60
2023/12/26 11:14:41;;;;;;;8.68;2.60;;;;;;;8.85;100.00;98825.34;1676655;84;28381;-62
2023/12/26 11:17:10;;;;;;;2.62;2.40;;;;;;;8.85;100.00;98823.99;1700448;84;34796;-61
2023/12/26 11:19:38;;;;;;;3.17;2.45;;;;;;;8.85;100.00;98830.73;1676416;84;25536;-61
2023/12/26 11:22:07;;;;;;;3.02;2.62;;;;;;;8.83;100.00;98823.55;1676209;84;26182;-61
2023/12/26 11:24:34;;;;;;;2.85;2.22;;;;;;;8.85;100.00;98822.65;1676304;84;25456;-60
2023/12/26 11:27:03;;;;;;;4.05;2.40;;;;;;;8.84;100.00;98824.35;1700364;84;28361;-61
2023/12/26 11:29:34;;;;;;;;;;;;;;;8.84;100.00;98813.56;1702816;84;26153;-60
2023/12/26 11:32:03;;;;;;;2.77;2.20;;;;;;;8.84;100.00;98817.05;1699812;84;25595;-61
2023/12/26 11:34:31;;;;;;;2.97;2.73;;;;;;;8.81;100.00;98824.45;1700549;84;25642;-59
2023/12/26 11:36:59;;;;;;;2.40;2.20;;;;;;;8.81;100.00;98825.80;1676310;84;25263;-61
2023/12/26 11:39:28;;;;;;;3.95;2.55;;;;;;;8.82;100.00;98831.97;1676325;84;28386;-62
2023/12/26 11:41:56;;;;;;;2.42;2.22;;;;;;;8.81;100.00;98836.58;1676215;84;25698;-62